Terminal Aerodrome Forecast
Issued by NWS

Home | Current Version | Previous Version | Text Only | Print | Product List | Glossary On
Versions: 1 2 3 4 5 6 7 8 9 10 11 12 13 14 15 16 17 18
247
FTUS43 KSGF 251120
TAFJLN
TAF
KJLN 251120Z 2512/2612 VRB03KT P6SM SKC
     FM251600 17008KT P6SM SKC
     FM260300 16008KT P6SM FEW200 WS020/18040KT
     FM261100 16006KT P6SM BKN090=

USA.gov is the U.S. government's official web portal to all federal, state and local government web resources and services.